createdAt,value
2019-02-08T00:00:22.740Z,76.04
2019-02-08T00:02:56.421Z,76.05
2019-02-08T00:05:28.548Z,75.97
2019-02-08T00:08:00.651Z,76.02
2019-02-08T00:10:32.873Z,76.05
2019-02-08T00:13:05.159Z,75.97
2019-02-08T00:15:37.553Z,76.00
2019-02-08T00:18:09.826Z,76.02
2019-02-08T00:20:42.989Z,75.99
2019-02-08T00:23:25.982Z,76.00
2019-02-08T00:25:48.662Z,76.04
2019-02-08T00:28:21.071Z,75.95
2019-02-08T00:30:53.364Z,75.85
2019-02-08T00:33:25.668Z,75.73
2019-02-08T00:35:57.856Z,75.93
2019-02-08T00:38:30.291Z,75.84
2019-02-08T00:41:02.600Z,75.85
2019-02-08T00:43:35.007Z,75.70
2019-02-08T00:46:07.265Z,75.86
2019-02-08T00:48:39.966Z,75.92
2019-02-08T00:51:12.364Z,75.93
2019-02-08T00:53:45.785Z,75.92
2019-02-08T00:56:17.965Z,75.92
2019-02-08T00:58:50.233Z,75.90
2019-02-08T01:01:22.459Z,75.80
2019-02-08T01:03:54.599Z,75.85
2019-02-08T01:06:26.907Z,75.76
2019-02-08T01:08:59.142Z,75.75
2019-02-08T01:11:31.460Z,75.84
2019-02-08T01:14:03.609Z,75.79
2019-02-08T01:16:35.955Z,75.86
2019-02-08T01:19:08.056Z,75.73
2019-02-08T01:21:41.289Z,75.66
2019-02-08T01:24:13.519Z,75.59
2019-02-08T01:26:45.966Z,75.67
2019-02-08T01:29:18.162Z,75.74
2019-02-08T01:31:50.306Z,75.63
2019-02-08T01:34:22.477Z,75.61
2019-02-08T01:36:55.753Z,75.68
2019-02-08T01:39:27.875Z,75.64
2019-02-08T01:42:00.110Z,75.65
2019-02-08T01:44:32.254Z,75.64
2019-02-08T01:47:04.457Z,75.50
2019-02-08T01:49:36.645Z,75.47
2019-02-08T01:52:09.222Z,75.16
2019-02-08T01:54:41.369Z,75.05
2019-02-08T01:57:13.600Z,75.12
2019-02-08T01:59:45.934Z,74.87
2019-02-08T02:02:18.038Z,74.90
2019-02-08T02:04:50.069Z,74.86
2019-02-08T02:07:22.391Z,74.90
2019-02-08T02:09:54.610Z,74.88
2019-02-08T02:12:26.927Z,74.82
2019-02-08T02:14:59.311Z,74.71
2019-02-08T02:17:31.474Z,74.75
2019-02-08T02:20:03.770Z,74.73
2019-02-08T02:22:35.989Z,74.84
2019-02-08T02:25:07.961Z,74.50
2019-02-08T02:27:40.025Z,74.75
2019-02-08T02:30:13.565Z,74.63
2019-02-08T02:32:48.372Z,74.71
2019-02-08T02:35:20.744Z,74.69
2019-02-08T02:37:55.673Z,74.53
2019-02-08T02:40:27.922Z,74.46
2019-02-08T02:43:00.087Z,74.52
2019-02-08T02:45:32.991Z,74.36
2019-02-08T02:48:06.265Z,74.58
2019-02-08T02:50:38.505Z,74.50
2019-02-08T02:53:10.787Z,74.64
2019-02-08T02:55:42.917Z,74.25
2019-02-08T02:58:15.047Z,74.39
2019-02-08T03:00:47.821Z,74.26
2019-02-08T03:03:20.081Z,74.30
2019-02-08T03:05:52.142Z,74.45
2019-02-08T03:08:24.428Z,74.43
2019-02-08T03:10:56.654Z,74.43
2019-02-08T03:13:28.814Z,74.34
2019-02-08T03:16:04.554Z,74.11
2019-02-08T03:18:36.974Z,74.04
2019-02-08T03:21:09.106Z,74.13
2019-02-08T03:23:42.406Z,73.94
2019-02-08T03:26:14.547Z,73.96
2019-02-08T03:28:46.743Z,73.95
2019-02-08T03:31:18.905Z,74.13
2019-02-08T03:33:52.134Z,74.10
2019-02-08T03:36:24.263Z,74.23
2019-02-08T03:38:56.419Z,74.26
2019-02-08T03:41:28.743Z,74.26
2019-02-08T03:44:01.262Z,74.23
2019-02-08T03:46:36.016Z,74.25
2019-02-08T03:49:08.492Z,74.25
2019-02-08T03:51:40.786Z,74.28
2019-02-08T03:54:20.718Z,74.21
2019-02-08T03:56:46.539Z,74.21
2019-02-08T03:59:18.861Z,74.18
2019-02-08T04:01:52.127Z,74.20
2019-02-08T04:04:24.278Z,74.19
2019-02-08T04:06:56.898Z,74.15
2019-02-08T04:09:29.111Z,74.16
2019-02-08T04:12:01.454Z,74.15
2019-02-08T04:14:33.625Z,74.15
2019-02-08T04:17:05.887Z,74.17
2019-02-08T04:19:38.032Z,74.15
2019-02-08T04:22:10.458Z,74.14
2019-02-08T04:24:42.777Z,74.17
2019-02-08T04:27:14.949Z,74.15
2019-02-08T04:29:47.178Z,73.98
2019-02-08T04:32:20.488Z,73.97
2019-02-08T04:34:52.745Z,74.02
2019-02-08T04:37:25.341Z,73.97
2019-02-08T04:39:57.559Z,73.89
2019-02-08T04:42:30.158Z,73.76
2019-02-08T04:45:02.260Z,73.38
2019-02-08T04:47:34.593Z,73.57
2019-02-08T04:50:07.134Z,73.43
2019-02-08T04:52:39.468Z,73.26
2019-02-08T04:55:12.929Z,73.31
2019-02-08T04:57:46.539Z,73.18
2019-02-08T05:00:28.621Z,73.19
2019-02-08T05:03:00.860Z,73.21
2019-02-08T05:05:33.083Z,73.17
2019-02-08T05:08:05.381Z,73.23
2019-02-08T05:10:37.746Z,73.21
2019-02-08T05:13:11.149Z,73.25
2019-02-08T05:15:43.667Z,73.24
2019-02-08T05:18:16.204Z,73.36
2019-02-08T05:20:48.429Z,72.97
2019-02-08T05:23:20.941Z,73.31
2019-02-08T05:25:53.016Z,72.81
2019-02-08T05:28:25.532Z,72.47
2019-02-08T05:30:57.860Z,71.91
2019-02-08T05:33:30.122Z,72.33
2019-02-08T05:36:02.436Z,72.62
2019-02-08T05:38:34.856Z,72.75
2019-02-08T05:41:07.341Z,72.82
2019-02-08T05:43:39.571Z,72.70
2019-02-08T05:46:11.683Z,72.78
2019-02-08T05:48:43.971Z,72.89
2019-02-08T05:51:16.216Z,72.89
2019-02-08T05:53:48.523Z,72.87
2019-02-08T05:56:20.750Z,72.87
2019-02-08T05:58:53.533Z,72.85
2019-02-08T06:01:25.868Z,72.75
2019-02-08T06:03:58.384Z,72.93
2019-02-08T06:06:30.629Z,72.94
2019-02-08T06:09:03.168Z,72.92
2019-02-08T06:11:35.575Z,73.07
2019-02-08T06:14:08.029Z,73.26
2019-02-08T06:16:40.062Z,73.32
2019-02-08T06:19:12.076Z,73.34
2019-02-08T06:21:44.298Z,73.34
2019-02-08T06:24:16.543Z,73.32
2019-02-08T06:26:49.768Z,73.35
2019-02-08T06:29:21.996Z,73.35
2019-02-08T06:31:54.567Z,73.44
2019-02-08T06:34:26.774Z,73.40
2019-02-08T06:36:59.172Z,73.40
2019-02-08T06:39:31.326Z,73.39
2019-02-08T06:42:03.536Z,73.24
2019-02-08T06:44:35.754Z,72.98
2019-02-08T06:47:07.958Z,72.99
2019-02-08T06:49:40.128Z,73.03
2019-02-08T06:52:13.661Z,73.00
2019-02-08T06:54:45.948Z,73.08
2019-02-08T06:57:32.525Z,73.10
2019-02-08T07:00:16.875Z,72.96
2019-02-08T07:03:12.040Z,72.94
2019-02-08T07:06:01.298Z,72.96
2019-02-08T07:09:10.866Z,72.88
2019-02-08T07:12:16.581Z,72.73
2019-02-08T07:15:08.178Z,72.68
2019-02-08T07:18:11.296Z,72.60
2019-02-08T07:21:08.242Z,72.86
2019-02-08T07:23:47.301Z,73.11
2019-02-08T07:26:30.742Z,72.90
2019-02-08T07:29:21.399Z,72.96
2019-02-08T07:32:15.280Z,73.01
2019-02-08T07:35:12.228Z,72.89
2019-02-08T07:38:06.055Z,72.91
2019-02-08T07:41:13.594Z,72.88
2019-02-08T07:44:02.860Z,72.85
2019-02-08T07:46:57.668Z,72.86
2019-02-08T07:49:46.933Z,72.81
2019-02-08T07:52:46.907Z,72.80
2019-02-08T07:55:42.152Z,72.84
2019-02-08T07:58:48.364Z,72.74
2019-02-08T08:01:39.059Z,72.36
2019-02-08T08:04:21.229Z,71.96
2019-02-08T08:07:10.901Z,71.09
2019-02-08T08:10:05.103Z,70.54
2019-02-08T08:12:55.987Z,70.24
2019-02-08T08:15:49.863Z,69.90
2019-02-08T08:18:44.859Z,69.68
2019-02-08T08:21:51.126Z,69.54
2019-02-08T08:24:53.949Z,69.61
2019-02-08T08:27:34.504Z,69.58
2019-02-08T08:30:23.926Z,69.60
2019-02-08T08:33:05.757Z,69.67
2019-02-08T08:35:47.848Z,69.63
2019-02-08T08:38:56.913Z,69.68
2019-02-08T08:41:47.549Z,69.69
2019-02-08T08:44:39.341Z,69.91
2019-02-08T08:47:19.472Z,69.96
2019-02-08T08:49:59.465Z,69.91
2019-02-08T08:53:03.078Z,69.90
2019-02-08T08:56:06.475Z,70.01
2019-02-08T08:58:56.978Z,69.94
2019-02-08T09:01:50.370Z,70.02
2019-02-08T09:04:36.281Z,70.08
2019-02-08T09:07:19.016Z,70.17
2019-02-08T09:10:16.237Z,70.18
2019-02-08T09:12:53.858Z,70.20
2019-02-08T09:15:51.263Z,70.25
2019-02-08T09:18:41.953Z,70.25
2019-02-08T09:21:35.512Z,70.28
2019-02-08T09:24:21.330Z,70.35
2019-02-08T09:27:12.282Z,70.39
2019-02-08T09:30:06.411Z,70.41
2019-02-08T09:32:47.248Z,70.40
2019-02-08T09:35:37.811Z,70.40
2019-02-08T09:38:30.666Z,70.42
2019-02-08T09:41:24.853Z,70.46
2019-02-08T09:44:15.417Z,70.52
2019-02-08T09:47:02.384Z,70.49
2019-02-08T09:50:02.396Z,70.55
2019-02-08T09:52:56.226Z,70.48
2019-02-08T09:55:47.192Z,70.47
2019-02-08T09:58:40.887Z,70.56
2019-02-08T10:01:31.812Z,70.52
2019-02-08T10:04:22.600Z,70.43
2019-02-08T10:07:22.721Z,70.48
2019-02-08T10:10:12.075Z,70.53
2019-02-08T10:13:01.449Z,70.58
2019-02-08T10:15:51.299Z,70.53
2019-02-08T10:18:45.180Z,70.52
2019-02-08T10:21:36.719Z,70.47
2019-02-08T10:24:30.752Z,70.48
2019-02-08T10:27:22.506Z,70.41
2019-02-08T10:30:31.732Z,70.38
2019-02-08T10:33:21.963Z,70.33
2019-02-08T10:36:17.938Z,70.31
2019-02-08T10:39:20.926Z,70.30
2019-02-08T10:42:10.448Z,70.15
2019-02-08T10:45:07.763Z,70.14
2019-02-08T10:47:57.191Z,69.32
2019-02-08T10:50:48.014Z,68.72
2019-02-08T10:53:41.992Z,68.00
2019-02-08T10:56:39.910Z,68.53
2019-02-08T10:59:32.034Z,68.76
2019-02-08T11:02:21.514Z,68.66
2019-02-08T11:05:27.407Z,68.94
2019-02-08T11:08:21.175Z,68.90
2019-02-08T11:11:23.024Z,68.91
2019-02-08T11:14:07.754Z,68.87
2019-02-08T11:17:01.358Z,68.77
2019-02-08T11:19:32.871Z,68.79
2019-02-08T11:22:05.442Z,68.73
2019-02-08T11:24:37.621Z,68.74
2019-02-08T11:27:09.912Z,68.61
2019-02-08T11:29:42.241Z,67.75
2019-02-08T11:32:14.422Z,67.75
2019-02-08T11:34:46.680Z,68.30
2019-02-08T11:37:19.053Z,68.27
2019-02-08T11:39:52.668Z,68.29
2019-02-08T11:42:24.976Z,68.23
2019-02-08T11:44:57.500Z,68.25
2019-02-08T11:47:30.044Z,68.28
2019-02-08T11:50:02.691Z,68.19
2019-02-08T11:52:35.116Z,68.15
2019-02-08T11:55:07.644Z,68.08
2019-02-08T11:57:40.041Z,68.07
2019-02-08T12:00:15.304Z,67.98
2019-02-08T12:02:48.052Z,67.95
2019-02-08T12:05:20.453Z,67.82
2019-02-08T12:07:52.653Z,67.84
2019-02-08T12:10:25.370Z,67.68
2019-02-08T12:12:57.964Z,67.63
2019-02-08T12:15:30.540Z,67.59
2019-02-08T12:18:02.594Z,67.62
2019-02-08T12:20:34.922Z,67.58
2019-02-08T12:23:06.933Z,67.44
2019-02-08T12:25:39.389Z,67.36
2019-02-08T12:28:11.665Z,67.20
2019-02-08T12:30:44.132Z,67.03
2019-02-08T12:33:16.508Z,66.99
2019-02-08T12:35:49.258Z,66.29
2019-02-08T12:38:21.597Z,66.31
2019-02-08T12:40:54.067Z,66.37
2019-02-08T12:43:26.796Z,65.93
2019-02-08T12:45:59.193Z,65.43
2019-02-08T12:48:31.781Z,65.38
2019-02-08T12:51:03.863Z,65.26
2019-02-08T12:53:36.025Z,65.61
2019-02-08T12:56:08.277Z,65.28
2019-02-08T12:58:40.494Z,65.08
2019-02-08T13:01:12.877Z,64.27
2019-02-08T13:03:45.346Z,64.02
2019-02-08T13:06:17.942Z,63.81
2019-02-08T13:08:50.002Z,63.25
2019-02-08T13:11:22.064Z,63.83
2019-02-08T13:13:54.660Z,64.41
2019-02-08T13:16:26.883Z,64.56
2019-02-08T13:18:59.197Z,64.79
2019-02-08T13:21:31.585Z,64.98
2019-02-08T13:24:03.897Z,64.88
2019-02-08T13:26:36.171Z,65.03
2019-02-08T13:29:08.503Z,65.12
2019-02-08T13:31:40.322Z,65.25
2019-02-08T13:34:12.651Z,65.39
2019-02-08T13:36:44.805Z,65.56
2019-02-08T13:39:17.144Z,65.66
2019-02-08T13:41:49.357Z,65.79
2019-02-08T13:44:21.677Z,65.71
2019-02-08T13:46:54.056Z,65.89
2019-02-08T13:49:26.295Z,65.81
2019-02-08T13:51:59.556Z,66.18
2019-02-08T13:54:31.828Z,65.98
2019-02-08T13:57:04.801Z,66.12
2019-02-08T13:59:36.975Z,66.18
2019-02-08T14:02:09.248Z,66.24
2019-02-08T14:04:41.452Z,66.18
2019-02-08T14:07:13.746Z,66.26
2019-02-08T14:09:48.294Z,66.36
2019-02-08T14:12:20.630Z,66.51
2019-02-08T14:14:52.888Z,66.56
2019-02-08T14:17:25.231Z,66.60
2019-02-08T14:19:57.446Z,66.61
2019-02-08T14:22:29.609Z,66.75
2019-02-08T14:25:01.728Z,66.78
2019-02-08T14:27:34.894Z,66.88
2019-02-08T14:30:09.498Z,66.94
2019-02-08T14:32:41.548Z,66.96
2019-02-08T14:35:13.643Z,67.08
2019-02-08T14:37:45.696Z,67.12
2019-02-08T14:40:19.093Z,67.12
2019-02-08T14:42:51.243Z,67.17
2019-02-08T14:45:23.558Z,67.26
2019-02-08T14:47:55.764Z,67.31
2019-02-08T14:50:28.280Z,67.31
2019-02-08T14:53:00.313Z,67.25
2019-02-08T14:55:32.589Z,67.40
2019-02-08T14:58:04.961Z,67.25
2019-02-08T15:00:37.377Z,67.42
2019-02-08T15:03:09.736Z,67.50
2019-02-08T15:05:41.822Z,67.49
2019-02-08T15:08:13.896Z,67.61
2019-02-08T15:10:46.896Z,67.61
2019-02-08T15:13:19.199Z,67.71
2019-02-08T15:15:51.352Z,67.72
2019-02-08T15:18:23.770Z,67.67
2019-02-08T15:20:56.093Z,67.36
2019-02-08T15:23:28.579Z,67.76
2019-02-08T15:26:00.895Z,67.79
2019-02-08T15:28:33.125Z,67.53
2019-02-08T15:31:05.466Z,67.87
2019-02-08T15:33:37.608Z,67.85
2019-02-08T15:36:09.921Z,67.97
2019-02-08T15:38:42.291Z,68.00
2019-02-08T15:41:14.459Z,68.02
2019-02-08T15:43:46.944Z,68.07
2019-02-08T15:46:19.235Z,67.95
2019-02-08T15:48:51.920Z,68.06
2019-02-08T15:51:24.399Z,68.12
2019-02-08T15:53:56.557Z,68.17
2019-02-08T15:56:28.709Z,67.94
2019-02-08T15:59:01.003Z,67.76
2019-02-08T16:01:33.220Z,67.21
2019-02-08T16:04:05.402Z,67.39
2019-02-08T16:06:37.541Z,67.92
2019-02-08T16:09:12.799Z,68.21
2019-02-08T16:11:45.378Z,68.23
2019-02-08T16:14:17.629Z,68.32
2019-02-08T16:16:50.083Z,68.35
2019-02-08T16:19:22.295Z,68.23
2019-02-08T16:21:54.423Z,68.28
2019-02-08T16:24:27.729Z,68.16
2019-02-08T16:26:59.967Z,68.29
2019-02-08T16:29:32.690Z,68.36
2019-02-08T16:32:05.054Z,68.51
2019-02-08T16:34:37.385Z,68.54
2019-02-08T16:37:09.474Z,68.48
2019-02-08T16:39:41.837Z,68.60
2019-02-08T16:42:14.018Z,68.69
2019-02-08T16:44:46.461Z,68.78
2019-02-08T16:47:18.523Z,68.77
2019-02-08T16:49:50.842Z,68.71
2019-02-08T16:52:23.130Z,68.77
2019-02-08T16:54:55.299Z,68.72
2019-02-08T16:57:27.648Z,68.82
2019-02-08T16:59:59.897Z,68.83
2019-02-08T17:02:32.085Z,68.95
2019-02-08T17:05:04.354Z,69.00
2019-02-08T17:07:36.575Z,69.13
2019-02-08T17:10:09.960Z,69.01
2019-02-08T17:12:42.216Z,69.14
2019-02-08T17:15:16.696Z,69.08
2019-02-08T17:17:49.099Z,69.15
2019-02-08T17:20:25.524Z,69.14
2019-02-08T17:22:57.759Z,69.12
2019-02-08T17:25:30.550Z,68.99
2019-02-08T17:28:02.886Z,68.97
2019-02-08T17:30:35.196Z,69.02
2019-02-08T17:33:07.458Z,69.09
2019-02-08T17:35:39.994Z,69.15
2019-02-08T17:38:12.415Z,69.18
2019-02-08T17:40:45.438Z,69.22
2019-02-08T17:43:17.605Z,69.09
2019-02-08T17:45:49.963Z,69.25
2019-02-08T17:48:22.127Z,69.27
2019-02-08T17:50:54.415Z,69.24
2019-02-08T17:53:26.692Z,69.10
2019-02-08T17:55:58.937Z,69.22
2019-02-08T17:58:31.116Z,69.21
2019-02-08T18:01:03.796Z,69.19
2019-02-08T18:03:36.974Z,69.25
2019-02-08T18:06:09.167Z,69.14
2019-02-08T18:08:41.346Z,69.02
2019-02-08T18:11:13.529Z,69.05
2019-02-08T18:13:45.623Z,68.96
2019-02-08T18:16:17.830Z,68.98
2019-02-08T18:18:50.074Z,69.07
2019-02-08T18:21:22.199Z,69.01
2019-02-08T18:23:54.512Z,68.89
2019-02-08T18:26:26.787Z,68.63
2019-02-08T18:28:59.009Z,68.25
2019-02-08T18:31:31.430Z,68.47
2019-02-08T18:34:03.542Z,68.33
2019-02-08T18:36:35.865Z,68.53
2019-02-08T18:39:08.960Z,68.43
2019-02-08T18:41:41.267Z,68.44
2019-02-08T18:44:13.567Z,68.36
2019-02-08T18:46:45.749Z,68.53
2019-02-08T18:49:18.092Z,68.56
2019-02-08T18:51:50.229Z,68.63
2019-02-08T18:54:22.540Z,68.82
2019-02-08T18:56:54.723Z,68.83
2019-02-08T18:59:27.154Z,68.98
2019-02-08T19:01:59.417Z,69.08
2019-02-08T19:04:31.522Z,69.13
2019-02-08T19:07:03.844Z,69.19
2019-02-08T19:09:36.024Z,69.30
2019-02-08T19:12:08.376Z,68.89
2019-02-08T19:14:40.486Z,68.40
2019-02-08T19:17:12.992Z,68.62
2019-02-08T19:19:45.961Z,68.63
2019-02-08T19:22:18.128Z,68.57
2019-02-08T19:24:50.143Z,68.84
2019-02-08T19:27:22.378Z,68.83
2019-02-08T19:29:54.630Z,68.72
2019-02-08T19:32:26.739Z,68.73
2019-02-08T19:34:58.798Z,68.73
2019-02-08T19:37:31.013Z,69.01
2019-02-08T19:40:03.090Z,69.23
2019-02-08T19:42:35.289Z,69.28
2019-02-08T19:45:08.605Z,69.47
2019-02-08T19:47:40.640Z,69.39
2019-02-08T19:50:13.600Z,69.14
2019-02-08T19:52:45.611Z,69.31
2019-02-08T19:55:18.812Z,69.26
2019-02-08T19:57:52.005Z,69.17
2019-02-08T20:00:24.987Z,69.17
2019-02-08T20:02:57.050Z,69.23
2019-02-08T20:05:29.472Z,69.29
2019-02-08T20:08:01.640Z,69.37
2019-02-08T20:10:35.494Z,69.37
2019-02-08T20:13:08.213Z,69.34
2019-02-08T20:15:40.174Z,69.43
2019-02-08T20:18:12.820Z,69.41
2019-02-08T20:20:45.336Z,69.57
2019-02-08T20:23:17.759Z,69.58
2019-02-08T20:25:49.866Z,69.34
2019-02-08T20:28:22.191Z,69.28
2019-02-08T20:30:54.284Z,69.39
2019-02-08T20:33:26.496Z,69.64
2019-02-08T20:35:58.866Z,69.27
2019-02-08T20:38:31.352Z,69.57
2019-02-08T20:41:03.289Z,69.47
2019-02-08T20:43:35.627Z,69.36
2019-02-08T20:46:07.619Z,69.58
2019-02-08T20:48:43.454Z,69.60
2019-02-08T20:51:15.696Z,69.57
2019-02-08T20:53:48.208Z,69.65
2019-02-08T20:56:20.242Z,69.51
2019-02-08T20:58:52.567Z,69.61
2019-02-08T21:01:26.550Z,69.63
2019-02-08T21:03:58.927Z,69.71
2019-02-08T21:06:33.227Z,69.57
2019-02-08T21:09:05.801Z,69.66
2019-02-08T21:11:38.088Z,69.55
2019-02-08T21:14:10.661Z,69.65
2019-02-08T21:16:42.581Z,69.75
2019-02-08T21:19:14.845Z,69.66
2019-02-08T21:21:47.089Z,69.74
2019-02-08T21:24:20.565Z,69.48
2019-02-08T21:26:52.750Z,69.62
2019-02-08T21:29:25.236Z,69.58
2019-02-08T21:31:58.549Z,69.62
2019-02-08T21:34:31.068Z,69.64
2019-02-08T21:37:03.333Z,69.65
2019-02-08T21:39:37.692Z,69.78
2019-02-08T21:42:09.852Z,69.66
2019-02-08T21:44:41.959Z,69.60
2019-02-08T21:47:14.159Z,69.67
2019-02-08T21:49:46.090Z,69.69
2019-02-08T21:52:19.495Z,69.70
2019-02-08T21:54:51.693Z,69.57
2019-02-08T21:57:24.006Z,69.67
2019-02-08T21:59:56.303Z,69.70
2019-02-08T22:02:28.707Z,69.63
2019-02-08T22:05:00.981Z,69.40
2019-02-08T22:07:34.342Z,69.51
2019-02-08T22:10:06.278Z,69.64
2019-02-08T22:12:38.422Z,69.66
2019-02-08T22:15:12.112Z,69.51
2019-02-08T22:17:44.480Z,69.43
2019-02-08T22:20:17.833Z,69.30
2019-02-08T22:22:49.804Z,69.47
2019-02-08T22:25:22.147Z,69.42
2019-02-08T22:27:54.297Z,69.63
2019-02-08T22:30:26.622Z,69.45
2019-02-08T22:32:59.092Z,69.22
2019-02-08T22:35:31.077Z,69.08
2019-02-08T22:38:03.349Z,69.30
2019-02-08T22:40:35.599Z,69.07
2019-02-08T22:43:07.826Z,69.12
2019-02-08T22:45:41.218Z,69.04
2019-02-08T22:48:14.405Z,69.34
2019-02-08T22:50:46.585Z,69.21
2019-02-08T22:53:18.839Z,69.30
2019-02-08T22:55:50.991Z,69.32
2019-02-08T22:58:24.236Z,69.33
2019-02-08T23:01:15.161Z,69.15
2019-02-08T23:03:47.444Z,69.39
2019-02-08T23:06:20.682Z,69.31
2019-02-08T23:08:52.817Z,69.11
2019-02-08T23:11:25.182Z,69.17
2019-02-08T23:13:57.559Z,69.10
2019-02-08T23:16:29.879Z,69.07
2019-02-08T23:19:02.119Z,69.02
2019-02-08T23:21:34.770Z,69.12
2019-02-08T23:24:07.086Z,69.08
2019-02-08T23:26:39.477Z,68.96
2019-02-08T23:29:11.807Z,68.91
2019-02-08T23:31:46.249Z,69.04
2019-02-08T23:34:18.464Z,69.06
2019-02-08T23:36:50.637Z,69.05
2019-02-08T23:39:22.760Z,69.03
2019-02-08T23:41:54.952Z,68.89
2019-02-08T23:44:27.116Z,69.05
2019-02-08T23:46:59.256Z,68.97
2019-02-08T23:49:31.559Z,69.00
2019-02-08T23:52:03.799Z,68.92
2019-02-08T23:54:36.150Z,69.05
2019-02-08T23:57:09.181Z,68.98
2019-02-08T23:59:41.370Z,68.84
